sensor_id;sensor_type;location;lat;lon;timestamp;P1;durP1;ratioP1;P2;durP2;ratioP2
19998;SDS011;10160;50.926;4.374;2023-10-19T00:00:33;2.72;;;0.75;;
19998;SDS011;10160;50.926;4.374;2023-10-19T00:02:59;5.05;;;0.88;;
19998;SDS011;10160;50.926;4.374;2023-10-19T00:05:28;1.85;;;0.60;;
19998;SDS011;10160;50.926;4.374;2023-10-19T00:07:56;8.05;;;1.40;;
19998;SDS011;10160;50.926;4.374;2023-10-19T00:10:25;4.40;;;0.70;;
19998;SDS011;10160;50.926;4.374;2023-10-19T00:12:57;5.68;;;0.95;;
19998;SDS011;10160;50.926;4.374;2023-10-19T00:15:31;2.03;;;0.60;;
19998;SDS011;10160;50.926;4.374;2023-10-19T00:17:59;7.22;;;1.48;;
19998;SDS011;10160;50.926;4.374;2023-10-19T00:20:34;3.88;;;1.10;;
19998;SDS011;10160;50.926;4.374;2023-10-19T00:22:59;4.65;;;0.70;;
19998;SDS011;10160;50.926;4.374;2023-10-19T00:25:27;4.88;;;0.82;;
19998;SDS011;10160;50.926;4.374;2023-10-19T00:27:54;2.97;;;0.60;;
19998;SDS011;10160;50.926;4.374;2023-10-19T00:30:19;3.05;;;0.65;;
19998;SDS011;10160;50.926;4.374;2023-10-19T00:32:48;4.07;;;0.85;;
19998;SDS011;10160;50.926;4.374;2023-10-19T00:35:15;4.25;;;0.82;;
19998;SDS011;10160;50.926;4.374;2023-10-19T00:38:00;5.72;;;1.00;;
19998;SDS011;10160;50.926;4.374;2023-10-19T00:40:49;3.08;;;0.80;;
19998;SDS011;10160;50.926;4.374;2023-10-19T00:43:27;5.55;;;0.90;;
19998;SDS011;10160;50.926;4.374;2023-10-19T00:45:57;3.10;;;0.70;;
19998;SDS011;10160;50.926;4.374;2023-10-19T00:48:23;5.38;;;0.73;;
19998;SDS011;10160;50.926;4.374;2023-10-19T00:50:51;4.63;;;0.80;;
19998;SDS011;10160;50.926;4.374;2023-10-19T00:53:28;3.60;;;0.90;;
19998;SDS011;10160;50.926;4.374;2023-10-19T00:55:54;7.30;;;1.00;;
19998;SDS011;10160;50.926;4.374;2023-10-19T00:58:20;4.70;;;1.00;;
19998;SDS011;10160;50.926;4.374;2023-10-19T01:00:54;5.18;;;0.98;;
19998;SDS011;10160;50.926;4.374;2023-10-19T01:03:20;4.47;;;1.00;;
19998;SDS011;10160;50.926;4.374;2023-10-19T01:05:46;4.85;;;0.80;;
19998;SDS011;10160;50.926;4.374;2023-10-19T01:08:15;5.20;;;0.90;;
19998;SDS011;10160;50.926;4.374;2023-10-19T01:10:56;5.20;;;0.88;;
19998;SDS011;10160;50.926;4.374;2023-10-19T01:13:22;5.72;;;0.80;;
19998;SDS011;10160;50.926;4.374;2023-10-19T01:15:58;5.03;;;0.82;;
19998;SDS011;10160;50.926;4.374;2023-10-19T01:18:24;4.63;;;1.00;;
19998;SDS011;10160;50.926;4.374;2023-10-19T01:20:54;4.47;;;0.90;;
19998;SDS011;10160;50.926;4.374;2023-10-19T01:23:20;4.18;;;0.77;;
19998;SDS011;10160;50.926;4.374;2023-10-19T01:25:50;7.45;;;1.02;;
19998;SDS011;10160;50.926;4.374;2023-10-19T01:28:20;3.95;;;1.10;;
19998;SDS011;10160;50.926;4.374;2023-10-19T01:30:50;7.95;;;1.00;;
19998;SDS011;10160;50.926;4.374;2023-10-19T01:33:19;7.50;;;1.00;;
19998;SDS011;10160;50.926;4.374;2023-10-19T01:35:46;3.78;;;0.70;;
19998;SDS011;10160;50.926;4.374;2023-10-19T01:38:31;8.88;;;1.20;;
19998;SDS011;10160;50.926;4.374;2023-10-19T01:40:57;4.35;;;1.17;;
19998;SDS011;10160;50.926;4.374;2023-10-19T01:43:29;7.40;;;1.20;;
19998;SDS011;10160;50.926;4.374;2023-10-19T01:45:59;6.35;;;1.10;;
19998;SDS011;10160;50.926;4.374;2023-10-19T01:48:36;6.07;;;1.40;;
19998;SDS011;10160;50.926;4.374;2023-10-19T01:51:08;9.30;;;1.77;;
19998;SDS011;10160;50.926;4.374;2023-10-19T01:53:36;10.55;;;1.90;;
19998;SDS011;10160;50.926;4.374;2023-10-19T01:56:08;8.25;;;1.88;;
19998;SDS011;10160;50.926;4.374;2023-10-19T01:58:37;5.88;;;2.03;;
19998;SDS011;10160;50.926;4.374;2023-10-19T02:01:04;7.95;;;2.22;;
19998;SDS011;10160;50.926;4.374;2023-10-19T02:03:43;8.80;;;2.45;;
19998;SDS011;10160;50.926;4.374;2023-10-19T02:06:09;9.75;;;2.90;;
19998;SDS011;10160;50.926;4.374;2023-10-19T02:08:49;9.80;;;2.35;;
19998;SDS011;10160;50.926;4.374;2023-10-19T02:11:23;7.45;;;2.13;;
19998;SDS011;10160;50.926;4.374;2023-10-19T02:13:50;11.77;;;3.03;;
19998;SDS011;10160;50.926;4.374;2023-10-19T02:16:21;15.07;;;3.25;;
19998;SDS011;10160;50.926;4.374;2023-10-19T02:18:50;7.15;;;3.05;;
19998;SDS011;10160;50.926;4.374;2023-10-19T02:21:17;9.77;;;2.05;;
19998;SDS011;10160;50.926;4.374;2023-10-19T02:23:53;14.20;;;1.95;;
19998;SDS011;10160;50.926;4.374;2023-10-19T02:26:21;10.05;;;2.15;;
19998;SDS011;10160;50.926;4.374;2023-10-19T02:28:55;9.20;;;1.85;;
19998;SDS011;10160;50.926;4.374;2023-10-19T02:31:21;7.40;;;1.85;;
19998;SDS011;10160;50.926;4.374;2023-10-19T02:33:52;9.38;;;2.00;;
19998;SDS011;10160;50.926;4.374;2023-10-19T02:36:24;11.65;;;2.42;;
19998;SDS011;10160;50.926;4.374;2023-10-19T02:38:53;8.95;;;1.88;;
19998;SDS011;10160;50.926;4.374;2023-10-19T02:41:24;5.63;;;1.77;;
19998;SDS011;10160;50.926;4.374;2023-10-19T02:43:52;9.27;;;1.60;;
19998;SDS011;10160;50.926;4.374;2023-10-19T02:46:48;8.13;;;1.58;;
19998;SDS011;10160;50.926;4.374;2023-10-19T02:49:17;7.72;;;2.08;;
19998;SDS011;10160;50.926;4.374;2023-10-19T02:51:47;7.63;;;2.60;;
19998;SDS011;10160;50.926;4.374;2023-10-19T02:54:18;10.40;;;2.03;;
19998;SDS011;10160;50.926;4.374;2023-10-19T02:56:46;10.40;;;1.98;;
19998;SDS011;10160;50.926;4.374;2023-10-19T02:59:17;9.85;;;2.33;;
19998;SDS011;10160;50.926;4.374;2023-10-19T03:01:49;6.95;;;1.88;;
19998;SDS011;10160;50.926;4.374;2023-10-19T03:04:15;8.20;;;1.70;;
19998;SDS011;10160;50.926;4.374;2023-10-19T03:06:42;13.80;;;2.30;;
19998;SDS011;10160;50.926;4.374;2023-10-19T03:09:08;9.07;;;2.00;;
19998;SDS011;10160;50.926;4.374;2023-10-19T03:11:53;8.25;;;2.33;;
19998;SDS011;10160;50.926;4.374;2023-10-19T03:14:20;12.43;;;2.13;;
19998;SDS011;10160;50.926;4.374;2023-10-19T03:16:50;13.20;;;2.20;;
19998;SDS011;10160;50.926;4.374;2023-10-19T03:19:16;10.32;;;1.95;;
19998;SDS011;10160;50.926;4.374;2023-10-19T03:21:44;9.40;;;2.35;;
19998;SDS011;10160;50.926;4.374;2023-10-19T03:24:14;15.30;;;2.53;;
19998;SDS011;10160;50.926;4.374;2023-10-19T03:26:49;8.43;;;2.08;;
19998;SDS011;10160;50.926;4.374;2023-10-19T03:29:15;12.90;;;2.22;;
19998;SDS011;10160;50.926;4.374;2023-10-19T03:31:50;8.15;;;2.25;;
19998;SDS011;10160;50.926;4.374;2023-10-19T03:34:17;13.15;;;2.35;;
19998;SDS011;10160;50.926;4.374;2023-10-19T03:36:42;7.50;;;2.13;;
19998;SDS011;10160;50.926;4.374;2023-10-19T03:39:08;13.73;;;3.25;;
19998;SDS011;10160;50.926;4.374;2023-10-19T03:41:38;15.57;;;2.60;;
19998;SDS011;10160;50.926;4.374;2023-10-19T03:44:07;7.25;;;2.10;;
19998;SDS011;10160;50.926;4.374;2023-10-19T03:46:39;12.05;;;2.03;;
19998;SDS011;10160;50.926;4.374;2023-10-19T03:49:17;9.00;;;3.13;;
19998;SDS011;10160;50.926;4.374;2023-10-19T03:51:47;8.98;;;2.13;;
19998;SDS011;10160;50.926;4.374;2023-10-19T03:54:32;9.40;;;2.05;;
19998;SDS011;10160;50.926;4.374;2023-10-19T03:56:58;7.88;;;2.20;;
19998;SDS011;10160;50.926;4.374;2023-10-19T03:59:28;12.48;;;2.10;;
19998;SDS011;10160;50.926;4.374;2023-10-19T04:01:56;14.02;;;2.38;;
19998;SDS011;10160;50.926;4.374;2023-10-19T04:04:24;11.13;;;2.58;;
19998;SDS011;10160;50.926;4.374;2023-10-19T04:06:50;8.20;;;2.17;;
19998;SDS011;10160;50.926;4.374;2023-10-19T04:09:22;7.95;;;1.90;;
19998;SDS011;10160;50.926;4.374;2023-10-19T04:11:51;12.90;;;2.22;;
19998;SDS011;10160;50.926;4.374;2023-10-19T04:14:17;14.30;;;2.25;;
19998;SDS011;10160;50.926;4.374;2023-10-19T04:16:45;14.50;;;2.15;;
19998;SDS011;10160;50.926;4.374;2023-10-19T04:19:13;11.88;;;2.55;;
19998;SDS011;10160;50.926;4.374;2023-10-19T04:21:40;14.20;;;3.28;;
19998;SDS011;10160;50.926;4.374;2023-10-19T04:24:09;10.90;;;1.92;;
19998;SDS011;10160;50.926;4.374;2023-10-19T04:26:35;7.95;;;1.92;;
19998;SDS011;10160;50.926;4.374;2023-10-19T04:29:02;11.65;;;2.38;;
19998;SDS011;10160;50.926;4.374;2023-10-19T04:31:36;9.27;;;2.55;;
19998;SDS011;10160;50.926;4.374;2023-10-19T04:34:03;7.60;;;1.95;;
19998;SDS011;10160;50.926;4.374;2023-10-19T04:36:32;12.45;;;2.00;;
19998;SDS011;10160;50.926;4.374;2023-10-19T04:39:01;9.73;;;2.33;;
19998;SDS011;10160;50.926;4.374;2023-10-19T04:41:27;11.82;;;2.10;;
19998;SDS011;10160;50.926;4.374;2023-10-19T04:43:53;9.05;;;1.90;;
19998;SDS011;10160;50.926;4.374;2023-10-19T04:46:19;10.82;;;2.63;;
19998;SDS011;10160;50.926;4.374;2023-10-19T04:48:46;11.32;;;2.60;;
19998;SDS011;10160;50.926;4.374;2023-10-19T04:51:11;14.10;;;2.10;;
19998;SDS011;10160;50.926;4.374;2023-10-19T04:53:37;10.07;;;2.33;;
19998;SDS011;10160;50.926;4.374;2023-10-19T04:56:04;18.67;;;2.88;;
19998;SDS011;10160;50.926;4.374;2023-10-19T04:58:31;10.80;;;1.88;;
19998;SDS011;10160;50.926;4.374;2023-10-19T05:00:57;14.18;;;2.60;;
19998;SDS011;10160;50.926;4.374;2023-10-19T05:03:24;12.98;;;2.28;;
19998;SDS011;10160;50.926;4.374;2023-10-19T05:05:53;18.70;;;2.50;;
19998;SDS011;10160;50.926;4.374;2023-10-19T05:08:19;15.77;;;3.03;;
19998;SDS011;10160;50.926;4.374;2023-10-19T05:10:45;9.82;;;1.90;;
19998;SDS011;10160;50.926;4.374;2023-10-19T05:13:11;15.27;;;2.70;;
19998;SDS011;10160;50.926;4.374;2023-10-19T05:15:37;10.52;;;2.60;;
19998;SDS011;10160;50.926;4.374;2023-10-19T05:18:03;12.30;;;2.63;;
19998;SDS011;10160;50.926;4.374;2023-10-19T05:20:29;15.32;;;2.53;;
19998;SDS011;10160;50.926;4.374;2023-10-19T05:22:55;12.98;;;2.20;;
19998;SDS011;10160;50.926;4.374;2023-10-19T05:25:23;13.27;;;2.10;;
19998;SDS011;10160;50.926;4.374;2023-10-19T05:27:48;13.43;;;2.10;;
19998;SDS011;10160;50.926;4.374;2023-10-19T05:30:14;9.48;;;2.05;;
19998;SDS011;10160;50.926;4.374;2023-10-19T05:32:40;14.38;;;2.10;;
19998;SDS011;10160;50.926;4.374;2023-10-19T05:35:05;12.20;;;2.30;;
19998;SDS011;10160;50.926;4.374;2023-10-19T05:37:31;13.60;;;2.35;;
19998;SDS011;10160;50.926;4.374;2023-10-19T05:39:57;12.85;;;2.20;;
19998;SDS011;10160;50.926;4.374;2023-10-19T05:42:23;11.18;;;2.08;;
19998;SDS011;10160;50.926;4.374;2023-10-19T05:44:50;14.05;;;2.55;;
19998;SDS011;10160;50.926;4.374;2023-10-19T05:47:16;12.88;;;2.15;;
19998;SDS011;10160;50.926;4.374;2023-10-19T05:49:42;12.80;;;2.40;;
19998;SDS011;10160;50.926;4.374;2023-10-19T05:52:08;12.30;;;1.92;;
19998;SDS011;10160;50.926;4.374;2023-10-19T05:54:35;10.45;;;1.98;;
19998;SDS011;10160;50.926;4.374;2023-10-19T05:57:02;12.90;;;1.80;;
19998;SDS011;10160;50.926;4.374;2023-10-19T05:59:32;11.77;;;2.00;;
19998;SDS011;10160;50.926;4.374;2023-10-19T06:01:58;12.60;;;2.13;;
19998;SDS011;10160;50.926;4.374;2023-10-19T06:04:24;12.43;;;2.10;;
19998;SDS011;10160;50.926;4.374;2023-10-19T06:06:49;8.82;;;1.73;;
19998;SDS011;10160;50.926;4.374;2023-10-19T06:09:16;12.50;;;1.85;;
19998;SDS011;10160;50.926;4.374;2023-10-19T06:11:43;13.10;;;1.90;;
19998;SDS011;10160;50.926;4.374;2023-10-19T06:14:09;11.85;;;1.98;;
19998;SDS011;10160;50.926;4.374;2023-10-19T06:16:35;13.75;;;2.40;;
19998;SDS011;10160;50.926;4.374;2023-10-19T06:19:00;11.27;;;2.00;;
19998;SDS011;10160;50.926;4.374;2023-10-19T06:21:30;10.73;;;2.13;;
19998;SDS011;10160;50.926;4.374;2023-10-19T06:23:56;12.63;;;2.08;;
19998;SDS011;10160;50.926;4.374;2023-10-19T06:26:23;12.13;;;2.33;;
19998;SDS011;10160;50.926;4.374;2023-10-19T06:28:48;11.07;;;2.22;;
19998;SDS011;10160;50.926;4.374;2023-10-19T06:31:15;15.77;;;2.40;;
19998;SDS011;10160;50.926;4.374;2023-10-19T06:33:42;12.93;;;1.92;;
19998;SDS011;10160;50.926;4.374;2023-10-19T06:36:07;17.77;;;2.50;;
19998;SDS011;10160;50.926;4.374;2023-10-19T06:38:34;11.68;;;2.13;;
19998;SDS011;10160;50.926;4.374;2023-10-19T06:40:59;12.95;;;2.40;;
19998;SDS011;10160;50.926;4.374;2023-10-19T06:43:28;14.60;;;2.20;;
19998;SDS011;10160;50.926;4.374;2023-10-19T06:45:55;14.43;;;2.75;;
19998;SDS011;10160;50.926;4.374;2023-10-19T06:48:21;17.80;;;3.00;;
19998;SDS011;10160;50.926;4.374;2023-10-19T06:50:47;11.02;;;2.15;;
19998;SDS011;10160;50.926;4.374;2023-10-19T06:53:12;17.17;;;2.38;;
19998;SDS011;10160;50.926;4.374;2023-10-19T06:55:38;19.75;;;2.70;;
19998;SDS011;10160;50.926;4.374;2023-10-19T06:58:05;10.25;;;1.80;;
19998;SDS011;10160;50.926;4.374;2023-10-19T07:00:32;14.85;;;2.33;;
19998;SDS011;10160;50.926;4.374;2023-10-19T07:02:59;13.38;;;2.22;;
19998;SDS011;10160;50.926;4.374;2023-10-19T07:05:25;19.30;;;3.00;;
19998;SDS011;10160;50.926;4.374;2023-10-19T07:07:57;12.20;;;2.42;;
19998;SDS011;10160;50.926;4.374;2023-10-19T07:10:24;15.40;;;2.55;;
19998;SDS011;10160;50.926;4.374;2023-10-19T07:12:52;12.95;;;2.25;;
19998;SDS011;10160;50.926;4.374;2023-10-19T07:15:19;9.00;;;2.60;;
19998;SDS011;10160;50.926;4.374;2023-10-19T07:17:47;11.43;;;3.13;;
19998;SDS011;10160;50.926;4.374;2023-10-19T07:20:14;13.60;;;2.80;;
19998;SDS011;10160;50.926;4.374;2023-10-19T07:22:50;13.32;;;2.40;;
19998;SDS011;10160;50.926;4.374;2023-10-19T07:25:43;23.42;;;2.95;;
19998;SDS011;10160;50.926;4.374;2023-10-19T07:28:24;16.38;;;2.80;;
19998;SDS011;10160;50.926;4.374;2023-10-19T07:30:51;18.45;;;2.55;;
19998;SDS011;10160;50.926;4.374;2023-10-19T07:33:17;15.93;;;2.53;;
19998;SDS011;10160;50.926;4.374;2023-10-19T07:35:45;14.43;;;3.10;;
19998;SDS011;10160;50.926;4.374;2023-10-19T07:38:15;11.75;;;2.50;;
19998;SDS011;10160;50.926;4.374;2023-10-19T07:40:42;15.45;;;2.85;;
19998;SDS011;10160;50.926;4.374;2023-10-19T07:43:08;16.75;;;2.55;;
19998;SDS011;10160;50.926;4.374;2023-10-19T07:45:35;16.48;;;2.42;;
19998;SDS011;10160;50.926;4.374;2023-10-19T07:48:01;16.08;;;2.55;;
19998;SDS011;10160;50.926;4.374;2023-10-19T07:50:37;19.20;;;3.17;;
19998;SDS011;10160;50.926;4.374;2023-10-19T07:53:05;13.60;;;2.55;;
19998;SDS011;10160;50.926;4.374;2023-10-19T07:55:31;15.75;;;2.78;;
19998;SDS011;10160;50.926;4.374;2023-10-19T07:57:58;15.70;;;2.40;;
19998;SDS011;10160;50.926;4.374;2023-10-19T08:00:28;12.05;;;2.47;;
19998;SDS011;10160;50.926;4.374;2023-10-19T08:02:58;20.33;;;2.67;;
19998;SDS011;10160;50.926;4.374;2023-10-19T08:05:25;15.60;;;2.75;;
19998;SDS011;10160;50.926;4.374;2023-10-19T08:07:51;13.85;;;2.72;;
19998;SDS011;10160;50.926;4.374;2023-10-19T08:10:17;11.25;;;2.70;;
19998;SDS011;10160;50.926;4.374;2023-10-19T08:12:44;11.23;;;2.40;;
19998;SDS011;10160;50.926;4.374;2023-10-19T08:15:14;18.23;;;2.85;;
19998;SDS011;10160;50.926;4.374;2023-10-19T08:17:42;13.55;;;2.65;;
19998;SDS011;10160;50.926;4.374;2023-10-19T08:20:09;15.93;;;2.80;;
19998;SDS011;10160;50.926;4.374;2023-10-19T08:22:49;17.67;;;2.80;;
19998;SDS011;10160;50.926;4.374;2023-10-19T08:25:19;17.20;;;2.88;;
19998;SDS011;10160;50.926;4.374;2023-10-19T08:27:46;13.30;;;2.67;;
19998;SDS011;10160;50.926;4.374;2023-10-19T08:30:16;20.17;;;3.35;;
19998;SDS011;10160;50.926;4.374;2023-10-19T08:32:43;22.27;;;3.70;;
19998;SDS011;10160;50.926;4.374;2023-10-19T08:35:13;17.15;;;3.20;;
19998;SDS011;10160;50.926;4.374;2023-10-19T08:37:40;16.80;;;3.72;;
19998;SDS011;10160;50.926;4.374;2023-10-19T08:40:07;18.65;;;3.88;;
19998;SDS011;10160;50.926;4.374;2023-10-19T08:42:39;12.93;;;3.08;;
19998;SDS011;10160;50.926;4.374;2023-10-19T08:45:06;22.73;;;3.50;;
19998;SDS011;10160;50.926;4.374;2023-10-19T08:47:34;16.23;;;2.47;;
19998;SDS011;10160;50.926;4.374;2023-10-19T08:50:03;15.20;;;2.53;;
19998;SDS011;10160;50.926;4.374;2023-10-19T08:52:33;13.68;;;2.65;;
19998;SDS011;10160;50.926;4.374;2023-10-19T08:55:01;14.93;;;2.40;;
19998;SDS011;10160;50.926;4.374;2023-10-19T08:57:26;14.18;;;2.55;;
19998;SDS011;10160;50.926;4.374;2023-10-19T08:59:53;16.55;;;2.55;;
19998;SDS011;10160;50.926;4.374;2023-10-19T09:02:23;15.23;;;2.97;;
19998;SDS011;10160;50.926;4.374;2023-10-19T09:04:49;19.05;;;2.92;;
19998;SDS011;10160;50.926;4.374;2023-10-19T09:07:18;18.20;;;3.13;;
19998;SDS011;10160;50.926;4.374;2023-10-19T09:09:44;16.27;;;2.90;;
19998;SDS011;10160;50.926;4.374;2023-10-19T09:12:12;18.70;;;2.70;;
19998;SDS011;10160;50.926;4.374;2023-10-19T09:14:41;20.38;;;2.83;;
19998;SDS011;10160;50.926;4.374;2023-10-19T09:17:08;17.30;;;3.28;;
19998;SDS011;10160;50.926;4.374;2023-10-19T09:19:39;21.52;;;3.10;;
19998;SDS011;10160;50.926;4.374;2023-10-19T09:22:07;15.65;;;2.75;;
19998;SDS011;10160;50.926;4.374;2023-10-19T09:24:41;16.60;;;3.10;;
19998;SDS011;10160;50.926;4.374;2023-10-19T09:27:07;19.05;;;3.25;;
19998;SDS011;10160;50.926;4.374;2023-10-19T09:29:33;12.85;;;2.63;;
19998;SDS011;10160;50.926;4.374;2023-10-19T09:31:59;15.60;;;3.42;;
19998;SDS011;10160;50.926;4.374;2023-10-19T09:34:29;19.90;;;2.60;;
19998;SDS011;10160;50.926;4.374;2023-10-19T09:37:01;18.23;;;2.47;;
19998;SDS011;10160;50.926;4.374;2023-10-19T09:39:32;14.82;;;2.50;;
19998;SDS011;10160;50.926;4.374;2023-10-19T09:42:08;17.75;;;2.95;;
19998;SDS011;10160;50.926;4.374;2023-10-19T09:44:45;15.55;;;3.13;;
19998;SDS011;10160;50.926;4.374;2023-10-19T09:47:34;13.70;;;2.67;;
19998;SDS011;10160;50.926;4.374;2023-10-19T09:50:04;15.93;;;2.08;;
19998;SDS011;10160;50.926;4.374;2023-10-19T09:52:32;16.25;;;2.25;;
19998;SDS011;10160;50.926;4.374;2023-10-19T09:57:37;18.63;;;3.08;;
19998;SDS011;10160;50.926;4.374;2023-10-19T10:00:10;18.17;;;2.60;;
19998;SDS011;10160;50.926;4.374;2023-10-19T10:02:43;15.15;;;2.40;;
19998;SDS011;10160;50.926;4.374;2023-10-19T10:10:42;15.48;;;2.33;;
19998;SDS011;10160;50.926;4.374;2023-10-19T10:15:49;15.68;;;2.75;;
19998;SDS011;10160;50.926;4.374;2023-10-19T10:18:20;20.85;;;2.65;;
19998;SDS011;10160;50.926;4.374;2023-10-19T10:21:07;13.30;;;2.17;;
19998;SDS011;10160;50.926;4.374;2023-10-19T10:23:42;20.90;;;3.17;;
19998;SDS011;10160;50.926;4.374;2023-10-19T10:26:13;16.85;;;2.65;;
19998;SDS011;10160;50.926;4.374;2023-10-19T10:28:40;15.50;;;3.25;;
19998;SDS011;10160;50.926;4.374;2023-10-19T10:33:53;20.88;;;3.25;;
19998;SDS011;10160;50.926;4.374;2023-10-19T10:36:20;13.57;;;2.70;;
19998;SDS011;10160;50.926;4.374;2023-10-19T10:38:47;16.42;;;2.78;;
19998;SDS011;10160;50.926;4.374;2023-10-19T10:41:23;15.32;;;2.75;;
19998;SDS011;10160;50.926;4.374;2023-10-19T10:43:54;17.45;;;3.05;;
19998;SDS011;10160;50.926;4.374;2023-10-19T10:46:21;13.23;;;2.75;;
19998;SDS011;10160;50.926;4.374;2023-10-19T10:48:48;15.27;;;2.53;;
19998;SDS011;10160;50.926;4.374;2023-10-19T10:51:18;19.70;;;3.03;;
19998;SDS011;10160;50.926;4.374;2023-10-19T10:53:51;13.50;;;2.38;;
19998;SDS011;10160;50.926;4.374;2023-10-19T10:56:18;14.93;;;3.50;;
19998;SDS011;10160;50.926;4.374;2023-10-19T10:58:45;16.05;;;2.20;;
19998;SDS011;10160;50.926;4.374;2023-10-19T11:01:11;19.50;;;3.38;;
19998;SDS011;10160;50.926;4.374;2023-10-19T11:03:38;16.42;;;2.72;;
19998;SDS011;10160;50.926;4.374;2023-10-19T11:06:05;14.25;;;2.40;;
19998;SDS011;10160;50.926;4.374;2023-10-19T11:08:33;14.77;;;2.22;;
19998;SDS011;10160;50.926;4.374;2023-10-19T11:11:04;15.40;;;2.30;;
19998;SDS011;10160;50.926;4.374;2023-10-19T11:13:31;9.73;;;2.15;;
19998;SDS011;10160;50.926;4.374;2023-10-19T11:15:58;11.48;;;2.22;;
19998;SDS011;10160;50.926;4.374;2023-10-19T11:18:29;16.60;;;3.50;;
19998;SDS011;10160;50.926;4.374;2023-10-19T11:21:00;27.00;;;3.78;;
19998;SDS011;10160;50.926;4.374;2023-10-19T11:23:37;16.00;;;3.03;;
19998;SDS011;10160;50.926;4.374;2023-10-19T11:26:05;15.88;;;2.58;;
19998;SDS011;10160;50.926;4.374;2023-10-19T11:28:32;15.32;;;2.58;;
19998;SDS011;10160;50.926;4.374;2023-10-19T11:31:11;13.25;;;2.95;;
19998;SDS011;10160;50.926;4.374;2023-10-19T11:33:44;13.15;;;2.47;;
19998;SDS011;10160;50.926;4.374;2023-10-19T11:36:13;14.90;;;2.35;;
19998;SDS011;10160;50.926;4.374;2023-10-19T11:38:43;11.63;;;2.50;;
19998;SDS011;10160;50.926;4.374;2023-10-19T11:41:12;14.00;;;1.98;;
19998;SDS011;10160;50.926;4.374;2023-10-19T11:43:41;15.60;;;2.42;;
19998;SDS011;10160;50.926;4.374;2023-10-19T11:46:09;14.98;;;2.60;;
19998;SDS011;10160;50.926;4.374;2023-10-19T11:48:36;10.70;;;2.20;;
19998;SDS011;10160;50.926;4.374;2023-10-19T11:51:03;22.40;;;2.88;;
19998;SDS011;10160;50.926;4.374;2023-10-19T11:53:36;14.98;;;2.55;;
19998;SDS011;10160;50.926;4.374;2023-10-19T11:56:03;20.92;;;2.20;;
19998;SDS011;10160;50.926;4.374;2023-10-19T11:58:33;20.75;;;2.17;;
19998;SDS011;10160;50.926;4.374;2023-10-19T12:01:03;10.02;;;2.13;;
19998;SDS011;10160;50.926;4.374;2023-10-19T12:03:41;7.93;;;1.90;;
19998;SDS011;10160;50.926;4.374;2023-10-19T12:06:10;7.40;;;1.60;;
19998;SDS011;10160;50.926;4.374;2023-10-19T12:08:37;9.93;;;1.77;;
19998;SDS011;10160;50.926;4.374;2023-10-19T12:11:05;18.23;;;2.00;;
19998;SDS011;10160;50.926;4.374;2023-10-19T12:13:40;11.38;;;2.15;;
19998;SDS011;10160;50.926;4.374;2023-10-19T12:16:08;9.95;;;1.85;;
19998;SDS011;10160;50.926;4.374;2023-10-19T12:18:37;10.25;;;1.80;;
19998;SDS011;10160;50.926;4.374;2023-10-19T12:21:07;10.98;;;1.50;;
19998;SDS011;10160;50.926;4.374;2023-10-19T12:23:36;8.23;;;1.60;;
19998;SDS011;10160;50.926;4.374;2023-10-19T12:26:05;9.85;;;2.25;;
19998;SDS011;10160;50.926;4.374;2023-10-19T12:28:36;9.32;;;1.75;;
19998;SDS011;10160;50.926;4.374;2023-10-19T12:31:03;7.40;;;1.55;;
19998;SDS011;10160;50.926;4.374;2023-10-19T12:33:30;8.05;;;1.50;;
19998;SDS011;10160;50.926;4.374;2023-10-19T12:35:56;8.93;;;1.73;;
19998;SDS011;10160;50.926;4.374;2023-10-19T12:38:22;8.63;;;1.60;;
19998;SDS011;10160;50.926;4.374;2023-10-19T12:40:50;8.25;;;2.28;;
19998;SDS011;10160;50.926;4.374;2023-10-19T12:43:16;11.85;;;1.75;;
19998;SDS011;10160;50.926;4.374;2023-10-19T12:45:47;6.38;;;1.83;;
19998;SDS011;10160;50.926;4.374;2023-10-19T12:48:19;9.07;;;1.65;;
19998;SDS011;10160;50.926;4.374;2023-10-19T12:50:45;8.88;;;1.50;;
19998;SDS011;10160;50.926;4.374;2023-10-19T12:53:14;11.10;;;1.88;;
19998;SDS011;10160;50.926;4.374;2023-10-19T12:55:39;7.85;;;1.70;;
19998;SDS011;10160;50.926;4.374;2023-10-19T12:58:08;6.45;;;1.50;;
19998;SDS011;10160;50.926;4.374;2023-10-19T13:00:37;7.38;;;1.13;;
19998;SDS011;10160;50.926;4.374;2023-10-19T13:03:06;9.75;;;1.15;;
19998;SDS011;10160;50.926;4.374;2023-10-19T13:05:35;5.43;;;1.25;;
19998;SDS011;10160;50.926;4.374;2023-10-19T13:08:02;6.03;;;1.10;;
19998;SDS011;10160;50.926;4.374;2023-10-19T13:10:38;5.78;;;1.17;;
19998;SDS011;10160;50.926;4.374;2023-10-19T13:13:07;4.00;;;0.98;;
19998;SDS011;10160;50.926;4.374;2023-10-19T13:15:36;3.13;;;0.75;;
19998;SDS011;10160;50.926;4.374;2023-10-19T13:18:04;5.70;;;0.90;;
19998;SDS011;10160;50.926;4.374;2023-10-19T13:20:31;5.97;;;0.80;;
19998;SDS011;10160;50.926;4.374;2023-10-19T13:23:01;5.03;;;1.13;;
19998;SDS011;10160;50.926;4.374;2023-10-19T13:25:51;4.05;;;0.60;;
19998;SDS011;10160;50.926;4.374;2023-10-19T13:28:33;3.35;;;0.82;;
19998;SDS011;10160;50.926;4.374;2023-10-19T13:31:00;2.53;;;0.80;;
19998;SDS011;10160;50.926;4.374;2023-10-19T13:33:25;4.00;;;0.68;;
19998;SDS011;10160;50.926;4.374;2023-10-19T13:35:51;2.95;;;0.80;;
19998;SDS011;10160;50.926;4.374;2023-10-19T13:38:17;3.40;;;0.63;;
19998;SDS011;10160;50.926;4.374;2023-10-19T13:40:47;5.57;;;0.85;;
19998;SDS011;10160;50.926;4.374;2023-10-19T13:43:15;5.80;;;0.70;;
19998;SDS011;10160;50.926;4.374;2023-10-19T13:45:43;2.83;;;0.80;;
19998;SDS011;10160;50.926;4.374;2023-10-19T13:48:10;4.32;;;0.80;;
19998;SDS011;10160;50.926;4.374;2023-10-19T13:50:41;5.43;;;0.80;;
19998;SDS011;10160;50.926;4.374;2023-10-19T13:53:09;2.60;;;0.73;;
19998;SDS011;10160;50.926;4.374;2023-10-19T13:55:35;3.92;;;0.80;;
19998;SDS011;10160;50.926;4.374;2023-10-19T13:58:01;1.85;;;0.60;;
19998;SDS011;10160;50.926;4.374;2023-10-19T14:00:27;2.83;;;0.70;;
19998;SDS011;10160;50.926;4.374;2023-10-19T14:03:01;4.03;;;0.75;;
19998;SDS011;10160;50.926;4.374;2023-10-19T14:05:29;4.43;;;0.98;;
19998;SDS011;10160;50.926;4.374;2023-10-19T14:08:01;2.85;;;0.70;;
19998;SDS011;10160;50.926;4.374;2023-10-19T14:10:28;3.58;;;0.73;;
19998;SDS011;10160;50.926;4.374;2023-10-19T14:12:55;4.38;;;0.50;;
19998;SDS011;10160;50.926;4.374;2023-10-19T14:15:21;3.33;;;0.85;;
19998;SDS011;10160;50.926;4.374;2023-10-19T14:17:47;5.57;;;0.80;;
19998;SDS011;10160;50.926;4.374;2023-10-19T14:20:14;4.20;;;0.90;;
19998;SDS011;10160;50.926;4.374;2023-10-19T14:22:41;3.92;;;0.60;;
19998;SDS011;10160;50.926;4.374;2023-10-19T14:25:08;8.15;;;0.95;;
19998;SDS011;10160;50.926;4.374;2023-10-19T14:27:44;3.63;;;1.00;;
19998;SDS011;10160;50.926;4.374;2023-10-19T14:30:11;4.60;;;0.90;;
19998;SDS011;10160;50.926;4.374;2023-10-19T14:32:42;3.13;;;1.00;;
19998;SDS011;10160;50.926;4.374;2023-10-19T14:35:10;3.45;;;0.80;;
19998;SDS011;10160;50.926;4.374;2023-10-19T14:37:55;3.47;;;0.90;;
19998;SDS011;10160;50.926;4.374;2023-10-19T14:40:24;5.25;;;0.90;;
19998;SDS011;10160;50.926;4.374;2023-10-19T14:42:53;5.80;;;1.20;;
19998;SDS011;10160;50.926;4.374;2023-10-19T14:45:20;6.03;;;1.00;;
19998;SDS011;10160;50.926;4.374;2023-10-19T14:47:50;4.78;;;0.95;;
19998;SDS011;10160;50.926;4.374;2023-10-19T14:50:17;5.47;;;0.70;;
19998;SDS011;10160;50.926;4.374;2023-10-19T14:52:45;4.88;;;0.60;;
19998;SDS011;10160;50.926;4.374;2023-10-19T14:55:12;6.47;;;0.75;;
19998;SDS011;10160;50.926;4.374;2023-10-19T14:57:42;2.83;;;0.88;;
19998;SDS011;10160;50.926;4.374;2023-10-19T15:00:11;1.92;;;0.55;;
19998;SDS011;10160;50.926;4.374;2023-10-19T15:02:43;8.95;;;1.00;;
19998;SDS011;10160;50.926;4.374;2023-10-19T15:05:10;3.03;;;0.50;;